createdAt,value
2018-07-22T00:02:11.613Z,20.90
2018-07-22T00:04:39.310Z,20.90
2018-07-22T00:07:08.618Z,20.90
2018-07-22T00:09:36.246Z,20.90
2018-07-22T00:12:03.910Z,20.50
2018-07-22T00:14:31.951Z,20.80
2018-07-22T00:17:00.826Z,20.80
2018-07-22T00:19:28.448Z,20.90
2018-07-22T00:21:57.502Z,20.70
2018-07-22T00:24:25.077Z,20.70
2018-07-22T00:26:52.775Z,20.70
2018-07-22T00:29:20.456Z,20.60
2018-07-22T00:31:48.984Z,20.60
2018-07-22T00:34:17.670Z,20.60
2018-07-22T00:36:45.298Z,20.60
2018-07-22T00:39:12.901Z,20.60
2018-07-22T00:41:40.630Z,20.60
2018-07-22T00:44:08.398Z,20.50
2018-07-22T00:46:36.186Z,20.50
2018-07-22T00:49:03.826Z,20.50
2018-07-22T00:51:31.427Z,20.40
2018-07-22T00:54:03.127Z,20.40
2018-07-22T00:56:31.385Z,20.40
2018-07-22T00:58:59.025Z,20.40
2018-07-22T01:01:26.666Z,20.40
2018-07-22T01:03:54.324Z,20.40
2018-07-22T01:06:22.244Z,20.40
2018-07-22T01:08:49.837Z,20.40
2018-07-22T01:11:17.489Z,20.40
2018-07-22T01:13:45.127Z,20.40
2018-07-22T01:16:12.803Z,20.30
2018-07-22T01:18:40.459Z,20.30
2018-07-22T01:21:08.192Z,20.30
2018-07-22T01:23:35.882Z,20.30
2018-07-22T01:26:03.502Z,20.30
2018-07-22T01:28:31.121Z,20.30
2018-07-22T01:30:58.757Z,20.20
2018-07-22T01:33:26.363Z,20.20
2018-07-22T01:35:53.930Z,20.20
2018-07-22T01:38:21.565Z,20.20
2018-07-22T01:40:49.229Z,20.10
2018-07-22T01:43:16.898Z,20.10
2018-07-22T01:45:44.499Z,20.00
2018-07-22T01:48:12.082Z,20.10
2018-07-22T01:50:39.723Z,20.00
2018-07-22T01:53:07.326Z,19.90
2018-07-22T01:55:34.944Z,20.00
2018-07-22T01:58:02.710Z,20.00
2018-07-22T02:00:30.403Z,19.90
2018-07-22T02:02:58.873Z,19.90
2018-07-22T02:05:27.431Z,19.90
2018-07-22T02:07:55.312Z,19.90
2018-07-22T02:10:22.931Z,19.90
2018-07-22T02:12:50.535Z,19.90
2018-07-22T02:15:18.111Z,19.90
2018-07-22T02:17:45.718Z,19.90
2018-07-22T02:20:13.329Z,19.90
2018-07-22T02:22:40.902Z,19.80
2018-07-22T02:25:08.470Z,19.80
2018-07-22T02:27:36.082Z,19.70
2018-07-22T02:30:04.533Z,19.70
2018-07-22T02:32:32.198Z,19.70
2018-07-22T02:34:59.822Z,19.70
2018-07-22T02:37:30.114Z,19.70
2018-07-22T02:39:57.701Z,19.70
2018-07-22T02:42:25.313Z,19.70
2018-07-22T02:44:52.976Z,19.60
2018-07-22T02:47:20.846Z,19.60
2018-07-22T02:49:48.535Z,19.60
2018-07-22T02:52:16.134Z,19.60
2018-07-22T02:54:43.835Z,19.60
2018-07-22T02:57:11.459Z,19.60
2018-07-22T02:59:39.018Z,19.60
2018-07-22T03:02:06.610Z,19.50
2018-07-22T03:04:34.214Z,19.50
2018-07-22T03:07:01.876Z,19.50
2018-07-22T03:09:29.510Z,19.50
2018-07-22T03:11:57.114Z,19.40
2018-07-22T03:14:25.462Z,19.30
2018-07-22T03:16:53.012Z,19.30
2018-07-22T03:19:20.640Z,19.30
2018-07-22T03:21:48.292Z,19.40
2018-07-22T03:24:15.858Z,19.50
2018-07-22T03:26:45.143Z,19.40
2018-07-22T03:29:12.679Z,19.30
2018-07-22T03:31:40.260Z,19.50
2018-07-22T03:34:07.974Z,19.50
2018-07-22T03:36:35.494Z,19.20
2018-07-22T03:39:04.908Z,19.40
2018-07-22T03:41:32.599Z,19.20
2018-07-22T03:44:00.226Z,19.10
2018-07-22T03:46:28.174Z,19.10
2018-07-22T03:48:55.812Z,19.20
2018-07-22T03:51:24.196Z,19.30
2018-07-22T03:53:54.935Z,19.20
2018-07-22T03:56:22.479Z,19.10
2018-07-22T03:58:50.125Z,19.40
2018-07-22T04:01:21.134Z,19.20
2018-07-22T04:03:48.814Z,19.20
2018-07-22T04:06:16.461Z,19.20
2018-07-22T04:08:44.234Z,19.20
2018-07-22T04:11:11.887Z,19.00
2018-07-22T04:13:39.554Z,19.20
2018-07-22T04:16:07.330Z,18.90
2018-07-22T04:18:46.702Z,19.20
2018-07-22T04:21:14.384Z,19.20
2018-07-22T04:23:44.601Z,19.20
2018-07-22T04:26:12.230Z,19.30
2018-07-22T04:28:39.867Z,19.30
2018-07-22T04:31:07.651Z,19.30
2018-07-22T04:33:35.341Z,19.00
2018-07-22T04:36:03.096Z,19.30
2018-07-22T04:38:30.841Z,19.30
2018-07-22T04:40:58.467Z,19.30
2018-07-22T04:43:26.102Z,19.30
2018-07-22T04:45:53.695Z,19.30
2018-07-22T04:48:21.322Z,19.40
2018-07-22T04:50:48.981Z,19.40
2018-07-22T04:53:16.622Z,19.40
2018-07-22T04:55:44.242Z,19.30
2018-07-22T04:58:11.787Z,19.40
2018-07-22T05:00:39.323Z,19.40
2018-07-22T05:03:06.962Z,19.40
2018-07-22T05:05:34.523Z,19.50
2018-07-22T05:08:02.265Z,19.50
2018-07-22T05:10:30.933Z,19.50
2018-07-22T05:12:58.494Z,19.50
2018-07-22T05:15:26.204Z,19.50
2018-07-22T05:17:53.804Z,19.60
2018-07-22T05:20:21.354Z,19.60
2018-07-22T05:22:48.908Z,19.60
2018-07-22T05:25:16.474Z,19.60
2018-07-22T05:27:43.990Z,19.40
2018-07-22T05:30:11.548Z,19.60
2018-07-22T05:32:39.117Z,19.70
2018-07-22T05:35:06.734Z,19.70
2018-07-22T05:37:34.417Z,19.70
2018-07-22T05:40:02.934Z,19.70
2018-07-22T05:42:30.489Z,19.70
2018-07-22T05:44:58.008Z,19.60
2018-07-22T05:47:25.611Z,19.70
2018-07-22T05:49:53.379Z,19.70
2018-07-22T05:54:48.606Z,19.90
2018-07-22T05:57:16.238Z,20.00
2018-07-22T05:59:43.980Z,19.70
2018-07-22T06:02:11.741Z,20.10
2018-07-22T06:04:39.198Z,20.10
2018-07-22T06:07:06.802Z,20.20
2018-07-22T06:09:34.490Z,20.20
2018-07-22T06:12:04.338Z,20.30
2018-07-22T06:14:33.618Z,20.40
2018-07-22T06:17:01.019Z,20.40
2018-07-22T06:19:28.467Z,20.50
2018-07-22T06:21:55.977Z,20.50
2018-07-22T06:24:23.406Z,20.60
2018-07-22T06:26:54.630Z,20.80
2018-07-22T06:29:22.042Z,20.60
2018-07-22T06:31:49.484Z,20.70
2018-07-22T06:34:16.894Z,20.60
2018-07-22T06:36:44.307Z,20.60
2018-07-22T06:39:13.430Z,20.60
2018-07-22T06:41:42.055Z,20.70
2018-07-22T06:44:09.710Z,20.90
2018-07-22T06:46:37.164Z,20.80
2018-07-22T06:49:04.618Z,20.80
2018-07-22T06:51:32.016Z,20.80
2018-07-22T06:53:59.433Z,20.80
2018-07-22T06:56:26.831Z,20.80
2018-07-22T06:58:54.762Z,20.80
2018-07-22T07:01:22.150Z,20.90
2018-07-22T07:03:49.546Z,21.10
2018-07-22T07:06:16.964Z,21.50
2018-07-22T07:08:44.298Z,21.40
2018-07-22T07:11:11.655Z,21.40
2018-07-22T07:13:39.046Z,21.40
2018-07-22T07:16:06.464Z,21.50
2018-07-22T07:18:33.927Z,21.30
2018-07-22T07:21:01.286Z,21.60
2018-07-22T07:23:28.666Z,21.70
2018-07-22T07:25:56.278Z,21.80
2018-07-22T07:28:23.654Z,21.80
2018-07-22T07:30:50.979Z,21.90
2018-07-22T07:33:18.850Z,22.10
2018-07-22T07:35:46.165Z,22.00
2018-07-22T07:38:13.494Z,22.60
2018-07-22T07:40:40.850Z,23.10
2018-07-22T07:43:08.215Z,23.90
2018-07-22T07:45:35.581Z,25.00
2018-07-22T07:48:03.063Z,26.50
2018-07-22T07:50:30.703Z,27.70
2018-07-22T07:52:58.116Z,29.00
2018-07-22T07:55:25.453Z,30.10
2018-07-22T07:57:54.510Z,30.90
2018-07-22T08:00:21.901Z,31.10
2018-07-22T08:02:49.329Z,32.10
2018-07-22T08:05:17.621Z,32.50
2018-07-22T08:07:45.280Z,32.90
2018-07-22T08:10:12.686Z,33.30
2018-07-22T08:12:40.186Z,33.10
2018-07-22T08:15:07.642Z,33.40
2018-07-22T08:17:35.115Z,34.30
2018-07-22T08:20:02.821Z,34.50
2018-07-22T08:22:30.249Z,34.70
2018-07-22T08:24:57.963Z,34.50
2018-07-22T08:27:25.462Z,34.40
2018-07-22T08:29:52.942Z,35.00
2018-07-22T08:32:20.360Z,35.10
2018-07-22T08:34:47.766Z,35.10
2018-07-22T08:37:15.186Z,34.80
2018-07-22T08:39:42.581Z,33.80
2018-07-22T08:42:10.249Z,32.60
2018-07-22T08:44:37.880Z,31.50
2018-07-22T08:47:05.640Z,30.40
2018-07-22T08:49:33.306Z,29.50
2018-07-22T08:52:00.894Z,28.80
2018-07-22T08:54:28.506Z,28.00
2018-07-22T08:56:56.119Z,27.30
2018-07-22T08:59:23.698Z,26.90
2018-07-22T09:01:51.338Z,26.60
2018-07-22T09:04:18.961Z,26.50
2018-07-22T09:06:46.386Z,26.60
2018-07-22T09:09:14.205Z,26.40
2018-07-22T09:11:41.896Z,26.10
2018-07-22T09:14:09.818Z,25.90
2018-07-22T09:16:37.495Z,25.80
2018-07-22T09:19:05.222Z,25.80
2018-07-22T09:21:33.037Z,25.70
2018-07-22T09:24:00.746Z,26.00
2018-07-22T09:26:28.343Z,25.80
2018-07-22T09:28:55.963Z,25.70
2018-07-22T09:31:23.540Z,25.80
2018-07-22T09:33:52.609Z,25.90
2018-07-22T09:36:20.349Z,26.00
2018-07-22T09:38:48.214Z,26.20
2018-07-22T09:41:15.586Z,26.30
2018-07-22T09:43:45.182Z,26.30
2018-07-22T09:46:12.514Z,26.50
2018-07-22T09:48:40.196Z,26.70
2018-07-22T09:51:07.615Z,26.70
2018-07-22T09:53:37.056Z,26.50
2018-07-22T09:56:04.540Z,26.50
2018-07-22T09:58:32.012Z,26.40
2018-07-22T10:01:00.390Z,26.40
2018-07-22T10:03:28.889Z,26.60
2018-07-22T10:05:56.789Z,26.60
2018-07-22T10:08:24.554Z,26.50
2018-07-22T10:10:52.169Z,26.40
2018-07-22T10:13:19.775Z,26.80
2018-07-22T10:15:47.406Z,26.90
2018-07-22T10:18:15.043Z,26.90
2018-07-22T10:20:42.677Z,27.10
2018-07-22T10:23:10.335Z,27.30
2018-07-22T10:25:37.937Z,27.20
2018-07-22T10:28:05.574Z,27.30
2018-07-22T10:30:33.154Z,27.40
2018-07-22T10:33:00.806Z,27.50
2018-07-22T10:35:28.516Z,27.50
2018-07-22T10:37:56.108Z,27.70
2018-07-22T10:40:23.795Z,27.70
2018-07-22T10:42:53.468Z,27.80
2018-07-22T10:45:21.211Z,27.80
2018-07-22T10:47:48.572Z,27.80
2018-07-22T10:50:15.977Z,27.90
2018-07-22T10:52:43.361Z,27.90
2018-07-22T10:55:10.760Z,28.10
2018-07-22T10:57:38.154Z,28.00
2018-07-22T11:00:06.281Z,28.00
2018-07-22T11:02:33.720Z,27.90
2018-07-22T11:05:01.294Z,28.10
2018-07-22T11:07:28.876Z,28.30
2018-07-22T11:09:56.446Z,28.20
2018-07-22T11:12:24.047Z,28.00
2018-07-22T11:14:51.790Z,28.20
2018-07-22T11:17:19.351Z,28.30
2018-07-22T11:19:46.995Z,28.10
2018-07-22T11:24:42.570Z,28.00
2018-07-22T11:27:10.090Z,28.00
2018-07-22T11:29:37.665Z,28.20
2018-07-22T11:32:05.306Z,27.90
2018-07-22T11:34:32.858Z,28.00
2018-07-22T11:37:00.667Z,28.30
2018-07-22T11:39:28.302Z,28.50
2018-07-22T11:41:55.989Z,28.60
2018-07-22T11:44:23.591Z,28.50
2018-07-22T11:46:51.118Z,28.90
2018-07-22T11:49:18.742Z,28.70
2018-07-22T11:51:46.333Z,29.00
2018-07-22T11:54:14.049Z,29.10
2018-07-22T11:56:42.330Z,29.00
2018-07-22T11:59:09.726Z,28.90
2018-07-22T12:01:38.719Z,28.70
2018-07-22T12:04:06.305Z,28.70
2018-07-22T12:06:33.942Z,28.80
2018-07-22T12:09:01.452Z,29.00
2018-07-22T12:11:28.916Z,29.20
2018-07-22T12:13:56.373Z,29.40
2018-07-22T12:16:23.791Z,29.50
2018-07-22T12:18:51.391Z,29.20
2018-07-22T12:21:19.187Z,29.10
2018-07-22T12:23:46.609Z,29.20
2018-07-22T12:26:16.609Z,28.90
2018-07-22T12:28:45.467Z,28.90
2018-07-22T12:31:13.138Z,28.80
2018-07-22T12:33:41.389Z,28.90
2018-07-22T12:36:09.075Z,28.90
2018-07-22T12:38:36.544Z,29.10
2018-07-22T12:41:05.465Z,29.00
2018-07-22T12:43:32.910Z,29.10
2018-07-22T12:46:00.433Z,29.40
2018-07-22T12:48:28.066Z,29.60
2018-07-22T12:55:50.485Z,29.60
2018-07-22T12:58:18.015Z,29.70
2018-07-22T13:00:45.553Z,29.90
2018-07-22T13:03:13.214Z,30.00
2018-07-22T13:05:43.186Z,29.90
2018-07-22T13:08:10.531Z,29.80
2018-07-22T13:10:38.001Z,29.80
2018-07-22T13:13:05.443Z,29.70
2018-07-22T13:15:32.766Z,29.60
2018-07-22T13:18:00.100Z,29.70
2018-07-22T13:20:27.694Z,29.80
2018-07-22T13:22:55.324Z,29.90
2018-07-22T13:25:23.041Z,29.90
2018-07-22T13:27:50.738Z,30.00
2018-07-22T13:30:18.137Z,30.10
2018-07-22T13:32:45.487Z,30.10
2018-07-22T13:35:12.878Z,30.10
2018-07-22T13:37:40.269Z,30.10
2018-07-22T13:40:08.017Z,29.90
2018-07-22T13:42:35.381Z,29.70
2018-07-22T13:45:03.722Z,29.60
2018-07-22T13:47:31.047Z,29.50
2018-07-22T13:50:00.567Z,29.40
2018-07-22T13:52:27.950Z,29.30
2018-07-22T13:54:55.447Z,29.40
2018-07-22T13:57:22.838Z,29.50
2018-07-22T13:59:50.232Z,29.70
2018-07-22T14:02:17.670Z,29.80
2018-07-22T14:04:45.058Z,29.80
2018-07-22T14:07:12.441Z,30.00
2018-07-22T14:09:39.843Z,29.90
2018-07-22T14:12:07.411Z,30.00
2018-07-22T14:14:34.903Z,30.10
2018-07-22T14:17:02.353Z,30.10
2018-07-22T14:19:29.807Z,30.20
2018-07-22T14:21:58.636Z,30.00
2018-07-22T14:24:36.367Z,30.20
2018-07-22T14:27:05.080Z,29.90
2018-07-22T14:29:32.983Z,30.00
2018-07-22T14:32:00.413Z,30.00
2018-07-22T14:34:31.132Z,30.00
2018-07-22T14:36:59.269Z,29.80
2018-07-22T14:39:26.586Z,29.90
2018-07-22T14:41:54.123Z,29.90
2018-07-22T14:44:21.537Z,29.60
2018-07-22T14:46:48.958Z,29.40
2018-07-22T14:49:16.270Z,29.20
2018-07-22T14:51:44.904Z,29.10
2018-07-22T14:54:12.298Z,29.00
2018-07-22T14:56:39.788Z,28.90
2018-07-22T14:59:07.319Z,28.80
2018-07-22T15:01:34.675Z,28.70
2018-07-22T15:04:05.050Z,28.60
2018-07-22T15:06:32.428Z,28.40
2018-07-22T15:09:00.232Z,28.40
2018-07-22T15:13:55.149Z,28.40
2018-07-22T15:16:27.762Z,28.30
2018-07-22T15:18:55.119Z,28.20
2018-07-22T15:21:26.046Z,28.30
2018-07-22T15:23:54.502Z,28.30
2018-07-22T15:26:21.994Z,28.30
2018-07-22T15:28:49.407Z,28.30
2018-07-22T15:31:16.836Z,28.40
2018-07-22T15:33:44.303Z,28.40
2018-07-22T15:36:11.746Z,28.30
2018-07-22T15:38:43.538Z,28.40
2018-07-22T15:41:10.914Z,28.50
2018-07-22T15:43:38.282Z,28.50
2018-07-22T15:46:05.765Z,28.30
2018-07-22T15:48:33.262Z,28.40
2018-07-22T15:51:04.405Z,28.40
2018-07-22T15:53:31.839Z,28.40
2018-07-22T15:55:59.821Z,28.50
2018-07-22T15:58:27.198Z,28.20
2018-07-22T16:00:54.736Z,28.00
2018-07-22T16:03:27.428Z,28.00
2018-07-22T16:05:54.884Z,27.90
2018-07-22T16:08:23.819Z,27.90
2018-07-22T16:10:51.910Z,27.90
2018-07-22T16:13:23.204Z,27.90
2018-07-22T16:15:51.905Z,27.80
2018-07-22T16:18:19.325Z,27.80
2018-07-22T16:20:46.877Z,27.70
2018-07-22T16:23:14.367Z,27.80
2018-07-22T16:25:41.710Z,27.70
2018-07-22T16:28:09.195Z,27.90
2018-07-22T16:30:36.690Z,27.70
2018-07-22T16:33:04.177Z,27.70
2018-07-22T16:35:31.522Z,27.80
2018-07-22T16:37:58.886Z,27.90
2018-07-22T16:40:26.303Z,27.80
2018-07-22T16:42:53.782Z,27.90
2018-07-22T16:45:21.214Z,27.90
2018-07-22T16:50:16.451Z,27.90
2018-07-22T16:52:43.806Z,27.90
2018-07-22T16:55:11.199Z,27.80
2018-07-22T16:57:38.601Z,27.80
2018-07-22T17:00:06.097Z,27.60
2018-07-22T17:02:33.537Z,27.90
2018-07-22T17:05:01.041Z,27.80
2018-07-22T17:07:28.477Z,27.80
2018-07-22T17:09:55.810Z,27.80
2018-07-22T17:12:25.701Z,27.80
2018-07-22T17:14:53.199Z,27.70
2018-07-22T17:17:20.590Z,27.60
2018-07-22T17:19:48.235Z,27.70
2018-07-22T17:22:15.984Z,27.70
2018-07-22T17:24:43.463Z,27.70
2018-07-22T17:27:10.826Z,27.60
2018-07-22T17:29:38.301Z,27.60
2018-07-22T17:32:05.764Z,27.60
2018-07-22T17:34:33.783Z,27.60
2018-07-22T17:37:01.186Z,27.60
2018-07-22T17:39:28.510Z,27.60
2018-07-22T17:41:55.866Z,27.60
2018-07-22T17:44:23.284Z,27.60
2018-07-22T17:46:50.652Z,27.30
2018-07-22T17:49:18.034Z,27.50
2018-07-22T17:51:45.602Z,27.50
2018-07-22T17:54:13.136Z,27.50
2018-07-22T17:56:40.427Z,27.40
2018-07-22T17:59:08.204Z,27.30
2018-07-22T18:01:35.652Z,27.40
2018-07-22T18:04:03.342Z,27.40
2018-07-22T18:06:30.932Z,27.40
2018-07-22T18:08:58.441Z,27.40
2018-07-22T18:11:25.845Z,27.40
2018-07-22T18:13:53.177Z,27.30
2018-07-22T18:18:48.037Z,27.40
2018-07-22T18:21:15.593Z,27.30
2018-07-22T18:23:43.073Z,27.30
2018-07-22T18:26:10.712Z,27.20
2018-07-22T18:28:38.498Z,27.20
2018-07-22T18:31:06.158Z,27.10
2018-07-22T18:33:33.614Z,27.10
2018-07-22T18:36:01.479Z,27.10
2018-07-22T18:38:29.117Z,27.00
2018-07-22T18:40:56.857Z,27.00
2018-07-22T18:43:24.722Z,26.90
2018-07-22T18:45:52.287Z,26.90
2018-07-22T18:48:20.043Z,26.70
2018-07-22T18:50:47.665Z,26.80
2018-07-22T18:53:15.439Z,26.70
2018-07-22T18:55:43.088Z,26.70
2018-07-22T18:58:10.961Z,26.70
2018-07-22T19:00:38.687Z,26.70
2018-07-22T19:03:06.375Z,26.70
2018-07-22T19:05:34.037Z,26.60
2018-07-22T19:08:01.577Z,26.60
2018-07-22T19:10:29.302Z,26.60
2018-07-22T19:12:58.912Z,26.50
2018-07-22T19:15:26.631Z,26.50
2018-07-22T19:17:54.246Z,26.40
2018-07-22T19:20:21.953Z,26.30
2018-07-22T19:22:49.494Z,26.40
2018-07-22T19:25:17.118Z,26.30
2018-07-22T19:27:44.840Z,26.20
2018-07-22T19:30:12.649Z,26.10
2018-07-22T19:32:40.516Z,26.10
2018-07-22T19:35:08.069Z,26.00
2018-07-22T19:37:35.818Z,25.90
2018-07-22T19:40:04.720Z,25.90
2018-07-22T19:42:32.442Z,25.80
2018-07-22T19:44:59.918Z,25.80
2018-07-22T19:47:27.311Z,25.70
2018-07-22T19:49:54.777Z,25.60
2018-07-22T19:52:22.182Z,25.60
2018-07-22T19:54:54.634Z,25.50
2018-07-22T19:57:22.038Z,25.50
2018-07-22T19:59:49.537Z,25.40
2018-07-22T20:02:16.976Z,25.40
2018-07-22T20:04:44.390Z,25.30
2018-07-22T20:07:11.865Z,25.30
2018-07-22T20:09:39.478Z,25.20
2018-07-22T20:12:06.941Z,25.20
2018-07-22T20:14:34.350Z,25.10
2018-07-22T20:17:02.840Z,25.00
2018-07-22T20:19:30.283Z,25.00
2018-07-22T20:21:57.818Z,25.00
2018-07-22T20:24:25.342Z,24.90
2018-07-22T20:26:52.628Z,24.40
2018-07-22T20:29:20.050Z,24.80
2018-07-22T20:31:47.563Z,24.70
2018-07-22T20:34:14.942Z,24.70
2018-07-22T20:36:42.350Z,24.70
2018-07-22T20:39:10.838Z,24.70
2018-07-22T20:41:39.277Z,24.60
2018-07-22T20:44:06.728Z,24.60
2018-07-22T20:46:34.242Z,24.60
2018-07-22T20:49:01.691Z,24.60
2018-07-22T20:51:29.137Z,24.50
2018-07-22T20:53:56.563Z,24.50
2018-07-22T20:56:24.024Z,24.50
2018-07-22T20:58:51.486Z,24.50
2018-07-22T21:01:18.947Z,24.50
2018-07-22T21:03:46.425Z,24.50
2018-07-22T21:06:14.255Z,24.50
2018-07-22T21:08:41.634Z,24.40
2018-07-22T21:11:09.022Z,24.40
2018-07-22T21:13:36.486Z,24.40
2018-07-22T21:16:03.939Z,24.30
2018-07-22T21:18:31.502Z,24.30
2018-07-22T21:20:59.085Z,24.30
2018-07-22T21:23:26.529Z,24.30
2018-07-22T21:25:53.999Z,24.20
2018-07-22T21:28:21.405Z,24.20
2018-07-22T21:30:48.967Z,24.10
2018-07-22T21:33:16.495Z,24.10
2018-07-22T21:35:43.907Z,24.00
2018-07-22T21:38:11.307Z,24.00
2018-07-22T21:40:38.739Z,24.00
2018-07-22T21:43:06.228Z,23.90
2018-07-22T21:45:33.713Z,23.90
2018-07-22T21:48:01.183Z,23.90
2018-07-22T21:50:28.591Z,23.80
2018-07-22T21:52:55.993Z,23.80
2018-07-22T21:55:23.553Z,23.60
2018-07-22T21:57:50.963Z,23.60
2018-07-22T22:00:21.894Z,23.60
2018-07-22T22:02:49.633Z,23.50
2018-07-22T22:05:17.168Z,23.60
2018-07-22T22:07:44.550Z,23.50
2018-07-22T22:10:11.919Z,23.50
2018-07-22T22:12:39.442Z,23.50
2018-07-22T22:15:14.323Z,23.40
2018-07-22T22:17:41.910Z,23.60
2018-07-22T22:20:09.279Z,23.40
2018-07-22T22:22:37.188Z,23.40
2018-07-22T22:25:05.118Z,23.40
2018-07-22T22:27:32.493Z,23.30
2018-07-22T22:29:59.847Z,23.30
2018-07-22T22:32:27.259Z,23.30
2018-07-22T22:34:54.702Z,23.30
2018-07-22T22:37:22.262Z,23.20
2018-07-22T22:39:49.692Z,23.20
2018-07-22T22:42:17.063Z,23.20
2018-07-22T22:44:44.683Z,23.10
2018-07-22T22:49:39.388Z,23.00
2018-07-22T22:52:06.803Z,23.00
2018-07-22T22:54:34.307Z,22.90
2018-07-22T22:57:01.732Z,22.90
2018-07-22T22:59:29.102Z,22.90
2018-07-22T23:01:57.072Z,22.80
2018-07-22T23:04:25.961Z,22.80
2018-07-22T23:06:53.326Z,22.70
2018-07-22T23:09:20.727Z,22.70
2018-07-22T23:11:49.375Z,22.70
2018-07-22T23:14:16.757Z,22.60
2018-07-22T23:16:44.121Z,22.60
2018-07-22T23:19:11.497Z,22.50
2018-07-22T23:21:39.045Z,22.50
2018-07-22T23:24:06.382Z,22.40
2018-07-22T23:26:33.800Z,22.40
2018-07-22T23:29:01.435Z,22.40
2018-07-22T23:31:29.192Z,22.30
2018-07-22T23:33:56.746Z,22.30
2018-07-22T23:36:24.085Z,22.30
2018-07-22T23:38:51.448Z,22.20
2018-07-22T23:41:19.064Z,22.20
2018-07-22T23:43:46.454Z,22.10
2018-07-22T23:46:13.876Z,22.10
2018-07-22T23:48:41.234Z,22.00
2018-07-22T23:51:08.596Z,21.70
2018-07-22T23:53:35.959Z,22.00
2018-07-22T23:56:03.325Z,21.90
2018-07-22T23:58:30.800Z,22.10
